sensor_id;sensor_type;location;lat;lon;timestamp;P1;durP1;ratioP1;P2;durP2;ratioP2
59074;SDS011;44860;53.020;6.738;2023-06-24T00:01:49;10.00;;;9.00;;
59074;SDS011;44860;53.020;6.738;2023-06-24T00:04:15;11.15;;;8.98;;
59074;SDS011;44860;53.020;6.738;2023-06-24T00:06:44;11.13;;;9.45;;
59074;SDS011;44860;53.020;6.738;2023-06-24T00:09:10;11.55;;;9.48;;
59074;SDS011;44860;53.020;6.738;2023-06-24T00:11:35;11.63;;;10.27;;
59074;SDS011;44860;53.020;6.738;2023-06-24T00:14:01;11.20;;;10.10;;
59074;SDS011;44860;53.020;6.738;2023-06-24T00:16:27;12.20;;;11.05;;
59074;SDS011;44860;53.020;6.738;2023-06-24T00:18:56;12.82;;;10.90;;
59074;SDS011;44860;53.020;6.738;2023-06-24T00:21:25;13.43;;;11.47;;
59074;SDS011;44860;53.020;6.738;2023-06-24T00:23:57;13.10;;;11.70;;
59074;SDS011;44860;53.020;6.738;2023-06-24T00:26:27;13.35;;;11.95;;
59074;SDS011;44860;53.020;6.738;2023-06-24T00:28:52;14.70;;;11.73;;
59074;SDS011;44860;53.020;6.738;2023-06-24T00:31:19;13.48;;;12.07;;
59074;SDS011;44860;53.020;6.738;2023-06-24T00:33:45;13.40;;;12.00;;
59074;SDS011;44860;53.020;6.738;2023-06-24T00:36:11;13.90;;;12.40;;
59074;SDS011;44860;53.020;6.738;2023-06-24T00:38:37;15.07;;;11.93;;
59074;SDS011;44860;53.020;6.738;2023-06-24T00:41:04;13.68;;;12.23;;
59074;SDS011;44860;53.020;6.738;2023-06-24T00:43:31;13.93;;;12.35;;
59074;SDS011;44860;53.020;6.738;2023-06-24T00:45:57;13.85;;;11.93;;
59074;SDS011;44860;53.020;6.738;2023-06-24T00:48:23;14.18;;;12.63;;
59074;SDS011;44860;53.020;6.738;2023-06-24T00:50:49;14.80;;;12.82;;
59074;SDS011;44860;53.020;6.738;2023-06-24T00:53:16;14.00;;;12.48;;
59074;SDS011;44860;53.020;6.738;2023-06-24T00:55:42;13.75;;;12.18;;
59074;SDS011;44860;53.020;6.738;2023-06-24T00:58:10;12.48;;;11.20;;
59074;SDS011;44860;53.020;6.738;2023-06-24T01:00:41;14.50;;;11.80;;
59074;SDS011;44860;53.020;6.738;2023-06-24T01:03:08;13.40;;;11.55;;
59074;SDS011;44860;53.020;6.738;2023-06-24T01:05:39;12.55;;;11.07;;
59074;SDS011;44860;53.020;6.738;2023-06-24T01:08:09;13.10;;;11.73;;
59074;SDS011;44860;53.020;6.738;2023-06-24T01:10:40;13.23;;;11.15;;
59074;SDS011;44860;53.020;6.738;2023-06-24T01:13:09;13.27;;;11.98;;
59074;SDS011;44860;53.020;6.738;2023-06-24T01:15:35;13.93;;;12.25;;
59074;SDS011;44860;53.020;6.738;2023-06-24T01:20:38;13.48;;;11.25;;
59074;SDS011;44860;53.020;6.738;2023-06-24T01:28:52;12.02;;;10.50;;
59074;SDS011;44860;53.020;6.738;2023-06-24T01:36:26;15.23;;;10.82;;
59074;SDS011;44860;53.020;6.738;2023-06-24T01:39:17;12.15;;;10.85;;
59074;SDS011;44860;53.020;6.738;2023-06-24T01:41:44;12.02;;;10.27;;
59074;SDS011;44860;53.020;6.738;2023-06-24T01:44:16;12.50;;;10.70;;
59074;SDS011;44860;53.020;6.738;2023-06-24T01:46:43;14.00;;;10.73;;
59074;SDS011;44860;53.020;6.738;2023-06-24T01:49:12;13.63;;;10.98;;
59074;SDS011;44860;53.020;6.738;2023-06-24T01:51:41;14.27;;;10.52;;
59074;SDS011;44860;53.020;6.738;2023-06-24T01:54:13;12.48;;;11.20;;
59074;SDS011;44860;53.020;6.738;2023-06-24T01:56:44;11.85;;;10.55;;
59074;SDS011;44860;53.020;6.738;2023-06-24T01:59:12;12.07;;;10.88;;
59074;SDS011;44860;53.020;6.738;2023-06-24T02:01:40;15.18;;;11.48;;
59074;SDS011;44860;53.020;6.738;2023-06-24T02:04:08;12.00;;;10.80;;
59074;SDS011;44860;53.020;6.738;2023-06-24T02:06:35;13.35;;;12.00;;
59074;SDS011;44860;53.020;6.738;2023-06-24T02:09:02;13.55;;;11.57;;
59074;SDS011;44860;53.020;6.738;2023-06-24T02:11:31;14.02;;;11.88;;
59074;SDS011;44860;53.020;6.738;2023-06-24T02:13:58;12.15;;;10.57;;
59074;SDS011;44860;53.020;6.738;2023-06-24T02:16:27;12.55;;;11.25;;
59074;SDS011;44860;53.020;6.738;2023-06-24T02:18:55;12.30;;;11.10;;
59074;SDS011;44860;53.020;6.738;2023-06-24T02:21:21;12.75;;;11.48;;
59074;SDS011;44860;53.020;6.738;2023-06-24T02:23:49;12.27;;;10.70;;
59074;SDS011;44860;53.020;6.738;2023-06-24T02:26:17;13.65;;;11.40;;
59074;SDS011;44860;53.020;6.738;2023-06-24T02:28:46;13.38;;;10.77;;
59074;SDS011;44860;53.020;6.738;2023-06-24T02:31:13;13.15;;;11.25;;
59074;SDS011;44860;53.020;6.738;2023-06-24T02:33:40;12.45;;;10.73;;
59074;SDS011;44860;53.020;6.738;2023-06-24T02:36:06;14.07;;;10.98;;
59074;SDS011;44860;53.020;6.738;2023-06-24T02:38:32;14.05;;;11.02;;
59074;SDS011;44860;53.020;6.738;2023-06-24T02:40:58;12.68;;;11.38;;
59074;SDS011;44860;53.020;6.738;2023-06-24T02:43:23;12.38;;;11.07;;
59074;SDS011;44860;53.020;6.738;2023-06-24T02:45:49;13.15;;;10.82;;
59074;SDS011;44860;53.020;6.738;2023-06-24T02:48:16;11.85;;;10.65;;
59074;SDS011;44860;53.020;6.738;2023-06-24T02:50:43;11.45;;;10.23;;
59074;SDS011;44860;53.020;6.738;2023-06-24T02:53:10;12.43;;;11.02;;
59074;SDS011;44860;53.020;6.738;2023-06-24T02:55:37;12.50;;;11.20;;
59074;SDS011;44860;53.020;6.738;2023-06-24T02:58:06;12.40;;;11.10;;
59074;SDS011;44860;53.020;6.738;2023-06-24T03:00:33;12.68;;;10.75;;
59074;SDS011;44860;53.020;6.738;2023-06-24T03:03:03;12.10;;;10.73;;
59074;SDS011;44860;53.020;6.738;2023-06-24T03:05:30;12.60;;;10.88;;
59074;SDS011;44860;53.020;6.738;2023-06-24T03:08:00;12.40;;;11.10;;
59074;SDS011;44860;53.020;6.738;2023-06-24T03:10:28;12.15;;;10.95;;
59074;SDS011;44860;53.020;6.738;2023-06-24T03:12:54;12.90;;;11.55;;
59074;SDS011;44860;53.020;6.738;2023-06-24T03:15:20;11.63;;;10.20;;
59074;SDS011;44860;53.020;6.738;2023-06-24T03:17:45;12.45;;;11.15;;
59074;SDS011;44860;53.020;6.738;2023-06-24T03:20:12;15.98;;;12.00;;
59074;SDS011;44860;53.020;6.738;2023-06-24T03:22:37;12.35;;;11.10;;
59074;SDS011;44860;53.020;6.738;2023-06-24T03:25:03;14.43;;;11.88;;
59074;SDS011;44860;53.020;6.738;2023-06-24T03:27:29;14.70;;;10.90;;
59074;SDS011;44860;53.020;6.738;2023-06-24T03:29:56;13.07;;;11.48;;
59074;SDS011;44860;53.020;6.738;2023-06-24T03:32:22;13.43;;;11.55;;
59074;SDS011;44860;53.020;6.738;2023-06-24T03:34:47;14.50;;;12.40;;
59074;SDS011;44860;53.020;6.738;2023-06-24T03:37:13;13.80;;;12.05;;
59074;SDS011;44860;53.020;6.738;2023-06-24T03:39:39;13.70;;;11.20;;
59074;SDS011;44860;53.020;6.738;2023-06-24T03:42:05;13.23;;;11.80;;
59074;SDS011;44860;53.020;6.738;2023-06-24T03:44:30;12.88;;;11.50;;
59074;SDS011;44860;53.020;6.738;2023-06-24T03:46:56;14.60;;;12.23;;
59074;SDS011;44860;53.020;6.738;2023-06-24T03:49:22;13.05;;;11.75;;
59074;SDS011;44860;53.020;6.738;2023-06-24T03:51:47;13.50;;;11.90;;
59074;SDS011;44860;53.020;6.738;2023-06-24T03:54:13;16.10;;;12.48;;
59074;SDS011;44860;53.020;6.738;2023-06-24T03:56:39;13.50;;;11.82;;
59074;SDS011;44860;53.020;6.738;2023-06-24T03:59:05;13.55;;;11.77;;
59074;SDS011;44860;53.020;6.738;2023-06-24T04:01:31;14.65;;;11.98;;
59074;SDS011;44860;53.020;6.738;2023-06-24T04:04:01;15.07;;;11.63;;
59074;SDS011;44860;53.020;6.738;2023-06-24T04:06:27;14.43;;;12.10;;
59074;SDS011;44860;53.020;6.738;2023-06-24T04:08:53;13.93;;;12.10;;
59074;SDS011;44860;53.020;6.738;2023-06-24T04:11:18;16.38;;;12.40;;
59074;SDS011;44860;53.020;6.738;2023-06-24T04:13:45;16.85;;;12.20;;
59074;SDS011;44860;53.020;6.738;2023-06-24T04:16:11;15.25;;;12.40;;
59074;SDS011;44860;53.020;6.738;2023-06-24T04:18:36;16.00;;;12.45;;
59074;SDS011;44860;53.020;6.738;2023-06-24T04:21:04;13.73;;;12.10;;
59074;SDS011;44860;53.020;6.738;2023-06-24T04:23:32;19.75;;;12.32;;
59074;SDS011;44860;53.020;6.738;2023-06-24T04:25:58;17.10;;;12.63;;
59074;SDS011;44860;53.020;6.738;2023-06-24T04:28:24;16.00;;;12.10;;
59074;SDS011;44860;53.020;6.738;2023-06-24T04:30:49;14.85;;;12.45;;
59074;SDS011;44860;53.020;6.738;2023-06-24T04:33:16;15.20;;;12.02;;
59074;SDS011;44860;53.020;6.738;2023-06-24T04:35:41;13.50;;;11.82;;
59074;SDS011;44860;53.020;6.738;2023-06-24T04:38:07;14.73;;;11.95;;
59074;SDS011;44860;53.020;6.738;2023-06-24T04:40:33;12.55;;;11.25;;
59074;SDS011;44860;53.020;6.738;2023-06-24T04:42:58;14.30;;;11.38;;
59074;SDS011;44860;53.020;6.738;2023-06-24T04:45:24;18.00;;;12.75;;
59074;SDS011;44860;53.020;6.738;2023-06-24T04:47:50;14.80;;;12.25;;
59074;SDS011;44860;53.020;6.738;2023-06-24T04:50:17;26.92;;;13.55;;
59074;SDS011;44860;53.020;6.738;2023-06-24T04:52:42;15.25;;;12.52;;
59074;SDS011;44860;53.020;6.738;2023-06-24T04:55:09;13.63;;;11.77;;
59074;SDS011;44860;53.020;6.738;2023-06-24T04:57:35;16.40;;;11.60;;
59074;SDS011;44860;53.020;6.738;2023-06-24T05:00:01;15.40;;;12.02;;
59074;SDS011;44860;53.020;6.738;2023-06-24T05:02:27;17.20;;;11.90;;
59074;SDS011;44860;53.020;6.738;2023-06-24T05:04:53;14.98;;;12.15;;
59074;SDS011;44860;53.020;6.738;2023-06-24T05:07:19;13.52;;;11.85;;
59074;SDS011;44860;53.020;6.738;2023-06-24T05:09:48;13.80;;;12.05;;
59074;SDS011;44860;53.020;6.738;2023-06-24T05:12:14;13.10;;;11.70;;
59074;SDS011;44860;53.020;6.738;2023-06-24T05:14:40;13.13;;;11.43;;
59074;SDS011;44860;53.020;6.738;2023-06-24T05:17:06;15.70;;;11.82;;
59074;SDS011;44860;53.020;6.738;2023-06-24T05:19:31;16.30;;;12.27;;
59074;SDS011;44860;53.020;6.738;2023-06-24T05:21:57;14.80;;;12.50;;
59074;SDS011;44860;53.020;6.738;2023-06-24T05:24:23;12.73;;;11.43;;
59074;SDS011;44860;53.020;6.738;2023-06-24T05:26:49;15.88;;;11.93;;
59074;SDS011;44860;53.020;6.738;2023-06-24T05:29:16;13.40;;;12.05;;
59074;SDS011;44860;53.020;6.738;2023-06-24T05:31:42;14.00;;;11.60;;
59074;SDS011;44860;53.020;6.738;2023-06-24T05:34:08;14.07;;;12.07;;
59074;SDS011;44860;53.020;6.738;2023-06-24T05:36:33;15.02;;;11.70;;
59074;SDS011;44860;53.020;6.738;2023-06-24T05:38:59;17.50;;;12.00;;
59074;SDS011;44860;53.020;6.738;2023-06-24T05:41:25;15.13;;;11.35;;
59074;SDS011;44860;53.020;6.738;2023-06-24T05:44:00;14.07;;;11.68;;
59074;SDS011;44860;53.020;6.738;2023-06-24T05:46:36;14.30;;;11.00;;
59074;SDS011;44860;53.020;6.738;2023-06-24T05:49:02;15.57;;;10.90;;
59074;SDS011;44860;53.020;6.738;2023-06-24T05:51:27;12.00;;;10.77;;
59074;SDS011;44860;53.020;6.738;2023-06-24T05:53:53;13.88;;;11.38;;
59074;SDS011;44860;53.020;6.738;2023-06-24T05:56:22;12.07;;;10.25;;
59074;SDS011;44860;53.020;6.738;2023-06-24T05:58:48;11.60;;;9.55;;
59074;SDS011;44860;53.020;6.738;2023-06-24T06:01:14;10.63;;;9.18;;
59074;SDS011;44860;53.020;6.738;2023-06-24T06:03:40;13.10;;;9.52;;
59074;SDS011;44860;53.020;6.738;2023-06-24T06:06:05;11.43;;;9.18;;
59074;SDS011;44860;53.020;6.738;2023-06-24T06:08:32;12.65;;;9.50;;
59074;SDS011;44860;53.020;6.738;2023-06-24T06:10:59;13.80;;;9.15;;
59074;SDS011;44860;53.020;6.738;2023-06-24T06:13:27;13.40;;;8.98;;
59074;SDS011;44860;53.020;6.738;2023-06-24T06:15:53;12.73;;;8.82;;
59074;SDS011;44860;53.020;6.738;2023-06-24T06:18:18;11.25;;;8.48;;
59074;SDS011;44860;53.020;6.738;2023-06-24T06:20:44;10.05;;;8.02;;
59074;SDS011;44860;53.020;6.738;2023-06-24T06:23:10;10.55;;;8.30;;
59074;SDS011;44860;53.020;6.738;2023-06-24T06:25:35;13.23;;;8.68;;
59074;SDS011;44860;53.020;6.738;2023-06-24T06:28:03;12.00;;;8.27;;
59074;SDS011;44860;53.020;6.738;2023-06-24T06:30:29;11.82;;;8.35;;
59074;SDS011;44860;53.020;6.738;2023-06-24T06:32:54;11.45;;;7.38;;
59074;SDS011;44860;53.020;6.738;2023-06-24T06:35:20;10.20;;;7.47;;
59074;SDS011;44860;53.020;6.738;2023-06-24T06:37:46;11.10;;;7.90;;
59074;SDS011;44860;53.020;6.738;2023-06-24T06:40:17;12.05;;;7.80;;
59074;SDS011;44860;53.020;6.738;2023-06-24T06:42:43;9.98;;;7.63;;
59074;SDS011;44860;53.020;6.738;2023-06-24T06:45:09;10.60;;;7.88;;
59074;SDS011;44860;53.020;6.738;2023-06-24T06:47:35;11.27;;;8.52;;
59074;SDS011;44860;53.020;6.738;2023-06-24T06:50:01;12.75;;;8.95;;
59074;SDS011;44860;53.020;6.738;2023-06-24T06:52:26;10.15;;;9.15;;
59074;SDS011;44860;53.020;6.738;2023-06-24T06:54:53;11.52;;;8.60;;
59074;SDS011;44860;53.020;6.738;2023-06-24T06:57:19;10.18;;;8.32;;
59074;SDS011;44860;53.020;6.738;2023-06-24T06:59:45;10.88;;;8.40;;
59074;SDS011;44860;53.020;6.738;2023-06-24T07:02:11;11.80;;;8.82;;
59074;SDS011;44860;53.020;6.738;2023-06-24T07:04:36;12.35;;;9.13;;
59074;SDS011;44860;53.020;6.738;2023-06-24T07:07:02;10.18;;;9.00;;
59074;SDS011;44860;53.020;6.738;2023-06-24T07:09:28;14.02;;;9.00;;
59074;SDS011;44860;53.020;6.738;2023-06-24T07:11:54;10.90;;;9.20;;
59074;SDS011;44860;53.020;6.738;2023-06-24T07:14:19;11.02;;;9.27;;
59074;SDS011;44860;53.020;6.738;2023-06-24T07:16:45;13.23;;;9.70;;
59074;SDS011;44860;53.020;6.738;2023-06-24T07:19:11;15.27;;;10.02;;
59074;SDS011;44860;53.020;6.738;2023-06-24T07:21:37;12.93;;;11.48;;
59074;SDS011;44860;53.020;6.738;2023-06-24T07:24:04;13.05;;;11.70;;
59074;SDS011;44860;53.020;6.738;2023-06-24T07:26:30;16.98;;;11.52;;
59074;SDS011;44860;53.020;6.738;2023-06-24T07:28:56;14.20;;;10.65;;
59074;SDS011;44860;53.020;6.738;2023-06-24T07:31:23;13.40;;;11.60;;
59074;SDS011;44860;53.020;6.738;2023-06-24T07:33:49;13.32;;;10.60;;
59074;SDS011;44860;53.020;6.738;2023-06-24T07:36:15;14.63;;;11.63;;
59074;SDS011;44860;53.020;6.738;2023-06-24T07:38:40;13.63;;;11.10;;
59074;SDS011;44860;53.020;6.738;2023-06-24T07:41:06;16.65;;;10.65;;
59074;SDS011;44860;53.020;6.738;2023-06-24T07:43:31;13.98;;;10.45;;
59074;SDS011;44860;53.020;6.738;2023-06-24T07:45:57;16.40;;;9.48;;
59074;SDS011;44860;53.020;6.738;2023-06-24T07:48:23;11.52;;;9.80;;
59074;SDS011;44860;53.020;6.738;2023-06-24T07:50:49;10.77;;;9.57;;
59074;SDS011;44860;53.020;6.738;2023-06-24T07:53:14;11.48;;;10.13;;
59074;SDS011;44860;53.020;6.738;2023-06-24T07:55:40;12.48;;;9.77;;
59074;SDS011;44860;53.020;6.738;2023-06-24T07:58:06;10.55;;;8.55;;
59074;SDS011;44860;53.020;6.738;2023-06-24T08:00:31;12.00;;;8.50;;
59074;SDS011;44860;53.020;6.738;2023-06-24T08:02:58;12.70;;;9.88;;
59074;SDS011;44860;53.020;6.738;2023-06-24T08:05:24;14.88;;;9.63;;
59074;SDS011;44860;53.020;6.738;2023-06-24T08:07:53;14.63;;;9.52;;
59074;SDS011;44860;53.020;6.738;2023-06-24T08:10:18;10.70;;;9.23;;
59074;SDS011;44860;53.020;6.738;2023-06-24T08:12:44;12.10;;;9.07;;
59074;SDS011;44860;53.020;6.738;2023-06-24T08:15:10;9.95;;;8.88;;
59074;SDS011;44860;53.020;6.738;2023-06-24T08:17:36;11.82;;;8.25;;
59074;SDS011;44860;53.020;6.738;2023-06-24T08:20:02;12.27;;;9.40;;
59074;SDS011;44860;53.020;6.738;2023-06-24T08:22:29;15.73;;;8.75;;
59074;SDS011;44860;53.020;6.738;2023-06-24T08:24:55;11.20;;;7.90;;
59074;SDS011;44860;53.020;6.738;2023-06-24T08:27:20;8.38;;;6.55;;
59074;SDS011;44860;53.020;6.738;2023-06-24T08:29:46;8.85;;;6.05;;
59074;SDS011;44860;53.020;6.738;2023-06-24T08:32:12;8.02;;;5.57;;
59074;SDS011;44860;53.020;6.738;2023-06-24T08:34:37;8.23;;;6.00;;
59074;SDS011;44860;53.020;6.738;2023-06-24T08:37:03;7.47;;;5.30;;
59074;SDS011;44860;53.020;6.738;2023-06-24T08:39:29;8.93;;;4.93;;
59074;SDS011;44860;53.020;6.738;2023-06-24T08:41:54;9.23;;;5.40;;
59074;SDS011;44860;53.020;6.738;2023-06-24T08:44:20;8.95;;;5.13;;
59074;SDS011;44860;53.020;6.738;2023-06-24T08:46:46;6.32;;;5.40;;
59074;SDS011;44860;53.020;6.738;2023-06-24T08:51:44;5.82;;;4.10;;
59074;SDS011;44860;53.020;6.738;2023-06-24T08:54:21;5.35;;;4.15;;
59074;SDS011;44860;53.020;6.738;2023-06-24T08:56:48;6.05;;;3.60;;
59074;SDS011;44860;53.020;6.738;2023-06-24T08:59:15;8.68;;;3.92;;
59074;SDS011;44860;53.020;6.738;2023-06-24T09:01:44;7.28;;;3.90;;
59074;SDS011;44860;53.020;6.738;2023-06-24T09:04:14;6.82;;;3.85;;
59074;SDS011;44860;53.020;6.738;2023-06-24T09:06:40;6.28;;;3.95;;
59074;SDS011;44860;53.020;6.738;2023-06-24T09:09:16;11.00;;;4.43;;
59074;SDS011;44860;53.020;6.738;2023-06-24T09:14:18;8.15;;;4.55;;
59074;SDS011;44860;53.020;6.738;2023-06-24T09:19:21;6.80;;;4.15;;
59074;SDS011;44860;53.020;6.738;2023-06-24T09:21:47;4.70;;;4.10;;
59074;SDS011;44860;53.020;6.738;2023-06-24T09:24:13;7.30;;;5.00;;
59074;SDS011;44860;53.020;6.738;2023-06-24T09:26:41;7.13;;;5.07;;
59074;SDS011;44860;53.020;6.738;2023-06-24T09:29:10;7.47;;;5.82;;
59074;SDS011;44860;53.020;6.738;2023-06-24T09:31:45;10.32;;;5.72;;
59074;SDS011;44860;53.020;6.738;2023-06-24T09:34:12;8.10;;;5.22;;
59074;SDS011;44860;53.020;6.738;2023-06-24T09:36:43;10.50;;;5.57;;
59074;SDS011;44860;53.020;6.738;2023-06-24T09:39:10;8.93;;;5.10;;
59074;SDS011;44860;53.020;6.738;2023-06-24T09:41:39;8.18;;;5.35;;
59074;SDS011;44860;53.020;6.738;2023-06-24T09:44:07;8.05;;;5.75;;
59074;SDS011;44860;53.020;6.738;2023-06-24T09:46:35;7.60;;;5.68;;
59074;SDS011;44860;53.020;6.738;2023-06-24T09:49:02;7.22;;;5.38;;
59074;SDS011;44860;53.020;6.738;2023-06-24T09:51:37;7.10;;;5.93;;
59074;SDS011;44860;53.020;6.738;2023-06-24T09:54:07;8.43;;;5.40;;
59074;SDS011;44860;53.020;6.738;2023-06-24T09:56:37;10.48;;;5.75;;
59074;SDS011;44860;53.020;6.738;2023-06-24T09:59:05;6.63;;;5.05;;
59074;SDS011;44860;53.020;6.738;2023-06-24T10:01:32;7.45;;;4.72;;
59074;SDS011;44860;53.020;6.738;2023-06-24T10:04:03;5.65;;;4.60;;
59074;SDS011;44860;53.020;6.738;2023-06-24T10:06:29;7.65;;;4.40;;
59074;SDS011;44860;53.020;6.738;2023-06-24T10:08:56;8.65;;;5.07;;
59074;SDS011;44860;53.020;6.738;2023-06-24T10:11:22;7.57;;;4.90;;
59074;SDS011;44860;53.020;6.738;2023-06-24T10:13:48;7.30;;;4.30;;
59074;SDS011;44860;53.020;6.738;2023-06-24T10:16:14;7.22;;;5.35;;
59074;SDS011;44860;53.020;6.738;2023-06-24T10:18:40;5.68;;;4.45;;
59074;SDS011;44860;53.020;6.738;2023-06-24T10:21:07;5.30;;;3.80;;
59074;SDS011;44860;53.020;6.738;2023-06-24T10:23:43;7.35;;;3.70;;
59074;SDS011;44860;53.020;6.738;2023-06-24T10:26:30;7.22;;;4.43;;
59074;SDS011;44860;53.020;6.738;2023-06-24T10:36:59;6.30;;;4.10;;
59074;SDS011;44860;53.020;6.738;2023-06-24T10:39:45;5.13;;;4.10;;
59074;SDS011;44860;53.020;6.738;2023-06-24T10:47:35;12.43;;;4.15;;
59074;SDS011;44860;53.020;6.738;2023-06-24T10:50:03;5.10;;;3.80;;
59074;SDS011;44860;53.020;6.738;2023-06-24T10:52:30;4.55;;;4.03;;
59074;SDS011;44860;53.020;6.738;2023-06-24T10:54:56;8.02;;;4.32;;
59074;SDS011;44860;53.020;6.738;2023-06-24T10:57:24;5.85;;;4.10;;
59074;SDS011;44860;53.020;6.738;2023-06-24T10:59:51;5.97;;;4.57;;
59074;SDS011;44860;53.020;6.738;2023-06-24T11:02:20;4.85;;;4.13;;
59074;SDS011;44860;53.020;6.738;2023-06-24T11:07:14;11.77;;;4.22;;
59074;SDS011;44860;53.020;6.738;2023-06-24T11:09:41;16.17;;;4.38;;
59074;SDS011;44860;53.020;6.738;2023-06-24T11:12:12;30.48;;;5.57;;
59074;SDS011;44860;53.020;6.738;2023-06-24T11:14:38;9.05;;;4.00;;
59074;SDS011;44860;53.020;6.738;2023-06-24T11:17:05;8.93;;;3.83;;
59074;SDS011;44860;53.020;6.738;2023-06-24T11:19:31;12.73;;;4.40;;
59074;SDS011;44860;53.020;6.738;2023-06-24T11:22:00;9.90;;;4.38;;
59074;SDS011;44860;53.020;6.738;2023-06-24T11:24:27;6.10;;;4.13;;
59074;SDS011;44860;53.020;6.738;2023-06-24T11:26:53;8.15;;;4.55;;
59074;SDS011;44860;53.020;6.738;2023-06-24T11:29:19;6.60;;;4.03;;
59074;SDS011;44860;53.020;6.738;2023-06-24T11:31:45;6.88;;;4.50;;
59074;SDS011;44860;53.020;6.738;2023-06-24T11:34:10;8.25;;;4.68;;
59074;SDS011;44860;53.020;6.738;2023-06-24T11:36:36;10.52;;;4.47;;
59074;SDS011;44860;53.020;6.738;2023-06-24T11:39:02;9.65;;;4.50;;
59074;SDS011;44860;53.020;6.738;2023-06-24T11:41:28;5.15;;;4.40;;
59074;SDS011;44860;53.020;6.738;2023-06-24T11:43:54;6.53;;;4.30;;
59074;SDS011;44860;53.020;6.738;2023-06-24T11:54:04;6.43;;;4.18;;
59074;SDS011;44860;53.020;6.738;2023-06-24T11:56:34;6.38;;;4.05;;
59074;SDS011;44860;53.020;6.738;2023-06-24T11:59:06;7.28;;;4.10;;
59074;SDS011;44860;53.020;6.738;2023-06-24T12:01:42;5.80;;;4.00;;
59074;SDS011;44860;53.020;6.738;2023-06-24T12:04:12;4.15;;;3.60;;
59074;SDS011;44860;53.020;6.738;2023-06-24T12:06:41;4.78;;;3.63;;
59074;SDS011;44860;53.020;6.738;2023-06-24T12:09:08;7.95;;;4.93;;
59074;SDS011;44860;53.020;6.738;2023-06-24T12:11:34;8.80;;;4.05;;
59074;SDS011;44860;53.020;6.738;2023-06-24T12:13:59;6.57;;;4.10;;
59074;SDS011;44860;53.020;6.738;2023-06-24T12:16:25;13.05;;;4.60;;
59074;SDS011;44860;53.020;6.738;2023-06-24T12:18:51;8.30;;;3.70;;
59074;SDS011;44860;53.020;6.738;2023-06-24T12:21:17;4.90;;;3.88;;
59074;SDS011;44860;53.020;6.738;2023-06-24T12:23:44;4.35;;;3.53;;
59074;SDS011;44860;53.020;6.738;2023-06-24T12:26:09;5.30;;;3.50;;
59074;SDS011;44860;53.020;6.738;2023-06-24T12:28:35;7.60;;;4.25;;
59074;SDS011;44860;53.020;6.738;2023-06-24T12:31:01;6.03;;;4.38;;
59074;SDS011;44860;53.020;6.738;2023-06-24T12:33:28;6.15;;;4.65;;
59074;SDS011;44860;53.020;6.738;2023-06-24T12:35:54;10.70;;;4.00;;
59074;SDS011;44860;53.020;6.738;2023-06-24T12:38:19;6.55;;;4.15;;
59074;SDS011;44860;53.020;6.738;2023-06-24T12:40:45;6.80;;;4.30;;
59074;SDS011;44860;53.020;6.738;2023-06-24T12:43:11;5.97;;;4.60;;
59074;SDS011;44860;53.020;6.738;2023-06-24T12:45:40;7.38;;;4.55;;
59074;SDS011;44860;53.020;6.738;2023-06-24T12:48:08;7.22;;;4.05;;
59074;SDS011;44860;53.020;6.738;2023-06-24T12:50:34;6.82;;;4.20;;
59074;SDS011;44860;53.020;6.738;2023-06-24T12:53:00;5.40;;;3.95;;
59074;SDS011;44860;53.020;6.738;2023-06-24T12:55:28;6.38;;;4.13;;
59074;SDS011;44860;53.020;6.738;2023-06-24T12:57:54;4.53;;;3.80;;
59074;SDS011;44860;53.020;6.738;2023-06-24T13:00:20;5.97;;;4.22;;
59074;SDS011;44860;53.020;6.738;2023-06-24T13:02:46;6.57;;;3.88;;
59074;SDS011;44860;53.020;6.738;2023-06-24T13:05:12;6.25;;;4.10;;
59074;SDS011;44860;53.020;6.738;2023-06-24T13:07:38;7.35;;;4.00;;
59074;SDS011;44860;53.020;6.738;2023-06-24T13:10:04;5.68;;;4.50;;
59074;SDS011;44860;53.020;6.738;2023-06-24T13:12:33;6.05;;;4.57;;
59074;SDS011;44860;53.020;6.738;2023-06-24T13:15:00;5.03;;;4.15;;
59074;SDS011;44860;53.020;6.738;2023-06-24T13:17:26;10.93;;;4.38;;
59074;SDS011;44860;53.020;6.738;2023-06-24T13:19:52;6.03;;;4.13;;
59074;SDS011;44860;53.020;6.738;2023-06-24T13:22:18;6.45;;;4.32;;
59074;SDS011;44860;53.020;6.738;2023-06-24T13:24:44;5.47;;;4.40;;
59074;SDS011;44860;53.020;6.738;2023-06-24T13:27:10;7.03;;;4.38;;
59074;SDS011;44860;53.020;6.738;2023-06-24T13:29:35;5.93;;;3.92;;
59074;SDS011;44860;53.020;6.738;2023-06-24T13:32:01;15.23;;;4.15;;
59074;SDS011;44860;53.020;6.738;2023-06-24T13:34:27;6.60;;;4.57;;
59074;SDS011;44860;53.020;6.738;2023-06-24T13:36:53;5.63;;;3.88;;
59074;SDS011;44860;53.020;6.738;2023-06-24T13:39:19;73.50;;;7.85;;
59074;SDS011;44860;53.020;6.738;2023-06-24T13:41:48;6.40;;;4.00;;
59074;SDS011;44860;53.020;6.738;2023-06-24T13:44:14;5.60;;;3.90;;
59074;SDS011;44860;53.020;6.738;2023-06-24T13:46:40;7.47;;;4.18;;
59074;SDS011;44860;53.020;6.738;2023-06-24T13:49:07;5.82;;;4.03;;
59074;SDS011;44860;53.020;6.738;2023-06-24T13:51:33;5.18;;;3.92;;
59074;SDS011;44860;53.020;6.738;2023-06-24T13:53:59;5.70;;;3.60;;
59074;SDS011;44860;53.020;6.738;2023-06-24T13:56:25;5.50;;;3.97;;
59074;SDS011;44860;53.020;6.738;2023-06-24T13:58:52;5.65;;;3.65;;
59074;SDS011;44860;53.020;6.738;2023-06-24T14:01:19;4.88;;;3.10;;
59074;SDS011;44860;53.020;6.738;2023-06-24T14:03:45;6.72;;;3.92;;
59074;SDS011;44860;53.020;6.738;2023-06-24T14:06:12;6.35;;;3.83;;
59074;SDS011;44860;53.020;6.738;2023-06-24T14:08:42;4.05;;;3.40;;
59074;SDS011;44860;53.020;6.738;2023-06-24T14:11:09;5.25;;;3.40;;
59074;SDS011;44860;53.020;6.738;2023-06-24T14:13:34;6.82;;;3.35;;
59074;SDS011;44860;53.020;6.738;2023-06-24T14:16:01;4.18;;;3.60;;
59074;SDS011;44860;53.020;6.738;2023-06-24T14:18:27;5.22;;;3.47;;
59074;SDS011;44860;53.020;6.738;2023-06-24T14:20:56;5.35;;;3.30;;
59074;SDS011;44860;53.020;6.738;2023-06-24T14:23:22;4.75;;;3.83;;
59074;SDS011;44860;53.020;6.738;2023-06-24T14:25:50;4.22;;;3.47;;
59074;SDS011;44860;53.020;6.738;2023-06-24T14:28:16;8.52;;;3.85;;
59074;SDS011;44860;53.020;6.738;2023-06-24T14:30:42;4.43;;;3.78;;
59074;SDS011;44860;53.020;6.738;2023-06-24T14:33:08;6.25;;;3.90;;
59074;SDS011;44860;53.020;6.738;2023-06-24T14:35:34;6.90;;;4.40;;
59074;SDS011;44860;53.020;6.738;2023-06-24T14:37:59;5.65;;;3.67;;
59074;SDS011;44860;53.020;6.738;2023-06-24T14:40:25;6.32;;;4.35;;
59074;SDS011;44860;53.020;6.738;2023-06-24T14:42:51;7.07;;;4.45;;
59074;SDS011;44860;53.020;6.738;2023-06-24T14:45:16;5.45;;;4.32;;
59074;SDS011;44860;53.020;6.738;2023-06-24T14:47:42;7.40;;;4.10;;
59074;SDS011;44860;53.020;6.738;2023-06-24T14:50:08;9.32;;;3.80;;
59074;SDS011;44860;53.020;6.738;2023-06-24T14:52:34;5.63;;;3.85;;
59074;SDS011;44860;53.020;6.738;2023-06-24T14:55:00;5.53;;;3.95;;
59074;SDS011;44860;53.020;6.738;2023-06-24T14:57:25;4.15;;;3.67;;
59074;SDS011;44860;53.020;6.738;2023-06-24T14:59:51;5.63;;;3.90;;
59074;SDS011;44860;53.020;6.738;2023-06-24T15:02:17;6.28;;;4.20;;
59074;SDS011;44860;53.020;6.738;2023-06-24T15:04:43;4.78;;;3.85;;
59074;SDS011;44860;53.020;6.738;2023-06-24T15:07:09;6.50;;;4.32;;
59074;SDS011;44860;53.020;6.738;2023-06-24T15:09:34;6.78;;;4.03;;
59074;SDS011;44860;53.020;6.738;2023-06-24T15:12:01;4.60;;;4.00;;
59074;SDS011;44860;53.020;6.738;2023-06-24T15:14:27;6.13;;;4.35;;
59074;SDS011;44860;53.020;6.738;2023-06-24T15:16:52;7.72;;;4.22;;